sensor_id;sensor_type;location;lat;lon;timestamp;pressure;altitude;pressure_sealevel;temperature
76583;BMP280;65462;52.148;7.940;2022-12-07T00:01:09;100673.94;;;5.03
76583;BMP280;65462;52.148;7.940;2022-12-07T00:03:35;100680.22;;;5.02
76583;BMP280;65462;52.148;7.940;2022-12-07T00:06:01;100681.22;;;5.06
76583;BMP280;65462;52.148;7.940;2022-12-07T00:08:27;100667.06;;;5.07
76583;BMP280;65462;52.148;7.940;2022-12-07T00:10:52;100666.28;;;5.07
76583;BMP280;65462;52.148;7.940;2022-12-07T00:13:18;100669.41;;;5.09
76583;BMP280;65462;52.148;7.940;2022-12-07T00:15:43;100669.91;;;5.11
76583;BMP280;65462;52.148;7.940;2022-12-07T00:18:09;100675.94;;;5.12
76583;BMP280;65462;52.148;7.940;2022-12-07T00:20:34;100675.13;;;5.16
76583;BMP280;65462;52.148;7.940;2022-12-07T00:22:59;100672.50;;;5.16
76583;BMP280;65462;52.148;7.940;2022-12-07T00:25:25;100667.28;;;5.16
76583;BMP280;65462;52.148;7.940;2022-12-07T00:27:52;100662.47;;;5.23
76583;BMP280;65462;52.148;7.940;2022-12-07T00:30:18;100673.44;;;5.25
76583;BMP280;65462;52.148;7.940;2022-12-07T00:32:43;100663.75;;;5.26
76583;BMP280;65462;52.148;7.940;2022-12-07T00:35:09;100662.75;;;5.22
76583;BMP280;65462;52.148;7.940;2022-12-07T00:37:34;100665.63;;;5.20
76583;BMP280;65462;52.148;7.940;2022-12-07T00:39:59;100663.31;;;5.19
76583;BMP280;65462;52.148;7.940;2022-12-07T00:42:24;100659.91;;;5.18
76583;BMP280;65462;52.148;7.940;2022-12-07T00:44:50;100655.69;;;5.22
76583;BMP280;65462;52.148;7.940;2022-12-07T00:47:15;100651.94;;;5.28
76583;BMP280;65462;52.148;7.940;2022-12-07T00:49:40;100642.25;;;5.29
76583;BMP280;65462;52.148;7.940;2022-12-07T00:52:06;100649.31;;;5.28
76583;BMP280;65462;52.148;7.940;2022-12-07T00:54:31;100637.28;;;5.27
76583;BMP280;65462;52.148;7.940;2022-12-07T00:56:56;100643.28;;;5.28
76583;BMP280;65462;52.148;7.940;2022-12-07T00:59:21;100644.56;;;5.30
76583;BMP280;65462;52.148;7.940;2022-12-07T01:01:47;100642.75;;;5.31
76583;BMP280;65462;52.148;7.940;2022-12-07T01:04:12;100648.53;;;5.28
76583;BMP280;65462;52.148;7.940;2022-12-07T01:06:38;100649.31;;;5.28
76583;BMP280;65462;52.148;7.940;2022-12-07T01:09:03;100646.69;;;5.28
76583;BMP280;65462;52.148;7.940;2022-12-07T01:11:30;100644.63;;;5.25
76583;BMP280;65462;52.148;7.940;2022-12-07T01:13:57;100652.44;;;5.30
76583;BMP280;65462;52.148;7.940;2022-12-07T01:16:25;100644.56;;;5.30
76583;BMP280;65462;52.148;7.940;2022-12-07T01:18:55;100655.56;;;5.32
76583;BMP280;65462;52.148;7.940;2022-12-07T01:21:29;100649.03;;;5.30
76583;BMP280;65462;52.148;7.940;2022-12-07T01:23:57;100652.16;;;5.32
76583;BMP280;65462;52.148;7.940;2022-12-07T01:26:23;100650.34;;;5.32
76583;BMP280;65462;52.148;7.940;2022-12-07T01:28:49;100641.69;;;5.32
76583;BMP280;65462;52.148;7.940;2022-12-07T01:31:17;100642.19;;;5.34
76583;BMP280;65462;52.148;7.940;2022-12-07T01:33:45;100640.34;;;5.34
76583;BMP280;65462;52.148;7.940;2022-12-07T01:36:19;100648.22;;;5.34
76583;BMP280;65462;52.148;7.940;2022-12-07T01:38:46;100654.78;;;5.32
76583;BMP280;65462;52.148;7.940;2022-12-07T01:41:12;100653.22;;;5.31
76583;BMP280;65462;52.148;7.940;2022-12-07T01:46:44;100665.59;;;5.25
76583;BMP280;65462;52.148;7.940;2022-12-07T01:49:35;100659.50;;;5.30
76583;BMP280;65462;52.148;7.940;2022-12-07T01:54:44;100665.59;;;5.25
76583;BMP280;65462;52.148;7.940;2022-12-07T01:57:10;100663.47;;;5.27
76583;BMP280;65462;52.148;7.940;2022-12-07T01:59:37;100664.00;;;5.24
76583;BMP280;65462;52.148;7.940;2022-12-07T02:02:07;100659.84;;;5.23
76583;BMP280;65462;52.148;7.940;2022-12-07T02:04:35;100654.13;;;5.21
76583;BMP280;65462;52.148;7.940;2022-12-07T02:07:02;100661.47;;;5.19
76583;BMP280;65462;52.148;7.940;2022-12-07T02:09:28;100658.09;;;5.14
76583;BMP280;65462;52.148;7.940;2022-12-07T02:11:54;100657.34;;;5.13
76583;BMP280;65462;52.148;7.940;2022-12-07T02:14:20;100658.41;;;5.07
76583;BMP280;65462;52.148;7.940;2022-12-07T02:17:07;100662.91;;;5.06
76583;BMP280;65462;52.148;7.940;2022-12-07T02:19:44;100650.66;;;5.02
76583;BMP280;65462;52.148;7.940;2022-12-07T02:22:42;100650.41;;;4.98
76583;BMP280;65462;52.148;7.940;2022-12-07T02:25:18;100653.88;;;4.94
76583;BMP280;65462;52.148;7.940;2022-12-07T02:27:52;100653.91;;;4.89
76583;BMP280;65462;52.148;7.940;2022-12-07T02:30:22;100654.47;;;4.86
76583;BMP280;65462;52.148;7.940;2022-12-07T02:33:04;100652.94;;;4.80
76583;BMP280;65462;52.148;7.940;2022-12-07T02:35:44;100642.50;;;4.75
76583;BMP280;65462;52.148;7.940;2022-12-07T02:40:58;100652.78;;;4.66
76583;BMP280;65462;52.148;7.940;2022-12-07T02:43:38;100647.06;;;4.59
76583;BMP280;65462;52.148;7.940;2022-12-07T02:46:07;100649.44;;;4.56
76583;BMP280;65462;52.148;7.940;2022-12-07T02:48:33;100638.81;;;4.52
76583;BMP280;65462;52.148;7.940;2022-12-07T02:50:59;100643.25;;;4.52
76583;BMP280;65462;52.148;7.940;2022-12-07T02:53:30;100646.41;;;4.48
76583;BMP280;65462;52.148;7.940;2022-12-07T02:55:55;100655.06;;;4.44
76583;BMP280;65462;52.148;7.940;2022-12-07T02:58:33;100646.16;;;4.45
76583;BMP280;65462;52.148;7.940;2022-12-07T03:01:11;100641.22;;;4.38
76583;BMP280;65462;52.148;7.940;2022-12-07T03:03:41;100641.22;;;4.38
76583;BMP280;65462;52.148;7.940;2022-12-07T03:06:20;100645.94;;;4.36
76583;BMP280;65462;52.148;7.940;2022-12-07T03:09:08;100639.19;;;4.30
76583;BMP280;65462;52.148;7.940;2022-12-07T03:12:07;100636.88;;;4.29
76583;BMP280;65462;52.148;7.940;2022-12-07T03:14:40;100640.56;;;4.23
76583;BMP280;65462;52.148;7.940;2022-12-07T03:17:18;100643.72;;;4.20
76583;BMP280;65462;52.148;7.940;2022-12-07T03:19:48;100640.31;;;4.19
76583;BMP280;65462;52.148;7.940;2022-12-07T03:22:14;100644.22;;;4.17
76583;BMP280;65462;52.148;7.940;2022-12-07T03:24:53;100635.34;;;4.18
76583;BMP280;65462;52.148;7.940;2022-12-07T03:27:23;100642.16;;;4.14
76583;BMP280;65462;52.148;7.940;2022-12-07T03:29:57;100635.16;;;4.09
76583;BMP280;65462;52.148;7.940;2022-12-07T03:37:36;100629.44;;;4.02
76583;BMP280;65462;52.148;7.940;2022-12-07T03:42:42;100625.25;;;4.01
76583;BMP280;65462;52.148;7.940;2022-12-07T03:45:08;100619.25;;;3.96
76583;BMP280;65462;52.148;7.940;2022-12-07T03:47:50;100623.22;;;3.93
76583;BMP280;65462;52.148;7.940;2022-12-07T03:53:14;100619.84;;;3.93
76583;BMP280;65462;52.148;7.940;2022-12-07T03:55:42;100626.63;;;3.88
76583;BMP280;65462;52.148;7.940;2022-12-07T03:58:11;100638.91;;;3.88
76583;BMP280;65462;52.148;7.940;2022-12-07T04:00:38;100625.09;;;3.82
76583;BMP280;65462;52.148;7.940;2022-12-07T04:03:03;100629.28;;;3.78
76583;BMP280;65462;52.148;7.940;2022-12-07T04:05:28;100623.03;;;3.74
76583;BMP280;65462;52.148;7.940;2022-12-07T04:07:54;100624.66;;;3.70
76583;BMP280;65462;52.148;7.940;2022-12-07T04:10:19;100619.13;;;3.72
76583;BMP280;65462;52.148;7.940;2022-12-07T04:12:45;100622.28;;;3.69
76583;BMP280;65462;52.148;7.940;2022-12-07T04:15:10;100619.69;;;3.69
76583;BMP280;65462;52.148;7.940;2022-12-07T04:17:35;100628.03;;;3.66
76583;BMP280;65462;52.148;7.940;2022-12-07T04:20:01;100629.88;;;3.65
76583;BMP280;65462;52.148;7.940;2022-12-07T04:22:26;100625.72;;;3.64
76583;BMP280;65462;52.148;7.940;2022-12-07T04:24:52;100636.69;;;3.61
76583;BMP280;65462;52.148;7.940;2022-12-07T04:27:17;100627.03;;;3.57
76583;BMP280;65462;52.148;7.940;2022-12-07T04:29:42;100624.69;;;3.55
76583;BMP280;65462;52.148;7.940;2022-12-07T04:32:07;100622.84;;;3.56
76583;BMP280;65462;52.148;7.940;2022-12-07T04:34:33;100626.53;;;3.55
76583;BMP280;65462;52.148;7.940;2022-12-07T04:36:58;100626.00;;;3.53
76583;BMP280;65462;52.148;7.940;2022-12-07T04:39:28;100620.25;;;3.51
76583;BMP280;65462;52.148;7.940;2022-12-07T04:41:54;100623.13;;;3.49
76583;BMP280;65462;52.148;7.940;2022-12-07T04:44:20;100627.31;;;3.50
76583;BMP280;65462;52.148;7.940;2022-12-07T04:46:46;100623.13;;;3.49
76583;BMP280;65462;52.148;7.940;2022-12-07T04:49:12;100620.00;;;3.47
76583;BMP280;65462;52.148;7.940;2022-12-07T04:51:37;100614.31;;;3.45
76583;BMP280;65462;52.148;7.940;2022-12-07T04:54:03;100631.25;;;3.43
76583;BMP280;65462;52.148;7.940;2022-12-07T04:56:28;100624.22;;;3.43
76583;BMP280;65462;52.148;7.940;2022-12-07T04:58:54;100635.19;;;3.45
76583;BMP280;65462;52.148;7.940;2022-12-07T05:01:20;100627.59;;;3.49
76583;BMP280;65462;52.148;7.940;2022-12-07T05:03:46;100626.56;;;3.45
76583;BMP280;65462;52.148;7.940;2022-12-07T05:06:11;100625.00;;;3.44
76583;BMP280;65462;52.148;7.940;2022-12-07T05:08:37;100622.91;;;3.46
76583;BMP280;65462;52.148;7.940;2022-12-07T05:11:04;100623.97;;;3.45
76583;BMP280;65462;52.148;7.940;2022-12-07T05:13:30;100617.16;;;3.44
76583;BMP280;65462;52.148;7.940;2022-12-07T05:15:55;100625.50;;;3.46
76583;BMP280;65462;52.148;7.940;2022-12-07T05:18:21;100628.94;;;3.41
76583;BMP280;65462;52.148;7.940;2022-12-07T05:20:46;100627.09;;;3.42
76583;BMP280;65462;52.148;7.940;2022-12-07T05:23:12;100622.91;;;3.41
76583;BMP280;65462;52.148;7.940;2022-12-07T05:25:38;100622.41;;;3.39
76583;BMP280;65462;52.148;7.940;2022-12-07T05:28:04;100624.75;;;3.40
76583;BMP280;65462;52.148;7.940;2022-12-07T05:30:30;100631.03;;;3.39
76583;BMP280;65462;52.148;7.940;2022-12-07T05:32:55;100622.66;;;3.37
76583;BMP280;65462;52.148;7.940;2022-12-07T05:35:21;100616.66;;;3.37
76583;BMP280;65462;52.148;7.940;2022-12-07T05:37:46;100617.72;;;3.36
76583;BMP280;65462;52.148;7.940;2022-12-07T05:40:12;100617.97;;;3.34
76583;BMP280;65462;52.148;7.940;2022-12-07T05:42:39;100613.53;;;3.29
76583;BMP280;65462;52.148;7.940;2022-12-07T05:45:04;100624.22;;;3.33
76583;BMP280;65462;52.148;7.940;2022-12-07T05:47:30;100620.31;;;3.30
76583;BMP280;65462;52.148;7.940;2022-12-07T05:49:55;100617.72;;;3.30
76583;BMP280;65462;52.148;7.940;2022-12-07T05:52:21;100613.53;;;3.29
76583;BMP280;65462;52.148;7.940;2022-12-07T05:54:46;100619.28;;;3.31
76583;BMP280;65462;52.148;7.940;2022-12-07T05:57:11;100622.41;;;3.28
76583;BMP280;65462;52.148;7.940;2022-12-07T05:59:37;100610.16;;;3.29
76583;BMP280;65462;52.148;7.940;2022-12-07T06:02:08;100611.19;;;3.28
76583;BMP280;65462;52.148;7.940;2022-12-07T06:04:36;100620.31;;;3.30
76583;BMP280;65462;52.148;7.940;2022-12-07T06:07:02;100614.06;;;3.31
76583;BMP280;65462;52.148;7.940;2022-12-07T06:09:28;100614.31;;;3.30
76583;BMP280;65462;52.148;7.940;2022-12-07T06:11:54;100613.53;;;3.29
76583;BMP280;65462;52.148;7.940;2022-12-07T06:14:38;100609.38;;;3.28
76583;BMP280;65462;52.148;7.940;2022-12-07T06:17:04;100610.16;;;3.29
76583;BMP280;65462;52.148;7.940;2022-12-07T06:19:30;100606.53;;;3.20
76583;BMP280;65462;52.148;7.940;2022-12-07T06:21:55;100609.91;;;3.20
76583;BMP280;65462;52.148;7.940;2022-12-07T06:24:21;100614.13;;;3.16
76583;BMP280;65462;52.148;7.940;2022-12-07T06:26:46;100609.41;;;3.18
76583;BMP280;65462;52.148;7.940;2022-12-07T06:29:12;100613.06;;;3.17
76583;BMP280;65462;52.148;7.940;2022-12-07T06:31:38;100615.41;;;3.19
76583;BMP280;65462;52.148;7.940;2022-12-07T06:34:06;100615.13;;;3.20
76583;BMP280;65462;52.148;7.940;2022-12-07T06:36:31;100613.59;;;3.19
76583;BMP280;65462;52.148;7.940;2022-12-07T06:38:57;100614.34;;;3.20
76583;BMP280;65462;52.148;7.940;2022-12-07T06:41:22;100612.25;;;3.22
76583;BMP280;65462;52.148;7.940;2022-12-07T06:43:48;100603.91;;;3.20
76583;BMP280;65462;52.148;7.940;2022-12-07T06:46:14;100610.44;;;3.17
76583;BMP280;65462;52.148;7.940;2022-12-07T06:48:41;100618.28;;;3.12
76583;BMP280;65462;52.148;7.940;2022-12-07T06:51:06;100631.59;;;3.16
76583;BMP280;65462;52.148;7.940;2022-12-07T06:53:32;100619.56;;;3.20
76583;BMP280;65462;52.148;7.940;2022-12-07T06:55:57;100622.19;;;3.20
76583;BMP280;65462;52.148;7.940;2022-12-07T06:58:22;100618.53;;;3.21
76583;BMP280;65462;52.148;7.940;2022-12-07T07:00:48;100618.81;;;3.19
76583;BMP280;65462;52.148;7.940;2022-12-07T07:03:15;100627.16;;;3.16
76583;BMP280;65462;52.148;7.940;2022-12-07T07:05:41;100622.19;;;3.15
76583;BMP280;65462;52.148;7.940;2022-12-07T07:08:07;100620.63;;;3.14
76583;BMP280;65462;52.148;7.940;2022-12-07T07:10:32;100626.38;;;3.11
76583;BMP280;65462;52.148;7.940;2022-12-07T07:12:57;100628.19;;;3.10
76583;BMP280;65462;52.148;7.940;2022-12-07T07:15:23;100633.44;;;3.05
76583;BMP280;65462;52.148;7.940;2022-12-07T07:17:48;100631.06;;;3.04
76583;BMP280;65462;52.148;7.940;2022-12-07T07:20:13;100631.59;;;3.01
76583;BMP280;65462;52.148;7.940;2022-12-07T07:22:39;100634.47;;;2.99
76583;BMP280;65462;52.148;7.940;2022-12-07T07:25:04;100644.38;;;2.97
76583;BMP280;65462;52.148;7.940;2022-12-07T07:27:29;100637.06;;;2.94
76583;BMP280;65462;52.148;7.940;2022-12-07T07:29:55;100637.63;;;2.91
76583;BMP280;65462;52.148;7.940;2022-12-07T07:32:20;100637.63;;;2.86
76583;BMP280;65462;52.148;7.940;2022-12-07T07:34:47;100637.88;;;2.85
76583;BMP280;65462;52.148;7.940;2022-12-07T07:37:12;100644.69;;;2.81
76583;BMP280;65462;52.148;7.940;2022-12-07T07:39:38;100650.13;;;2.79
76583;BMP280;65462;52.148;7.940;2022-12-07T07:42:03;100641.28;;;2.80
76583;BMP280;65462;52.148;7.940;2022-12-07T07:44:28;100644.66;;;2.75
76583;BMP280;65462;52.148;7.940;2022-12-07T07:46:54;100651.44;;;2.77
76583;BMP280;65462;52.148;7.940;2022-12-07T07:49:19;100642.31;;;2.74
76583;BMP280;65462;52.148;7.940;2022-12-07T07:51:44;100650.16;;;2.74
76583;BMP280;65462;52.148;7.940;2022-12-07T07:54:10;100647.53;;;2.74
76583;BMP280;65462;52.148;7.940;2022-12-07T07:56:35;100650.38;;;2.72
76583;BMP280;65462;52.148;7.940;2022-12-07T07:59:00;100653.00;;;2.72
76583;BMP280;65462;52.148;7.940;2022-12-07T08:01:25;100649.59;;;2.72
76583;BMP280;65462;52.148;7.940;2022-12-07T08:03:51;100652.22;;;2.72
76583;BMP280;65462;52.148;7.940;2022-12-07T08:06:16;100660.53;;;2.69
76583;BMP280;65462;52.148;7.940;2022-12-07T08:08:41;100651.94;;;2.68
76583;BMP280;65462;52.148;7.940;2022-12-07T08:11:08;100650.13;;;2.69
76583;BMP280;65462;52.148;7.940;2022-12-07T08:13:34;100651.19;;;2.68
76583;BMP280;65462;52.148;7.940;2022-12-07T08:16:04;100647.50;;;2.69
76583;BMP280;65462;52.148;7.940;2022-12-07T08:18:29;100650.13;;;2.69
76583;BMP280;65462;52.148;7.940;2022-12-07T08:21:01;100644.13;;;2.68
76583;BMP280;65462;52.148;7.940;2022-12-07T08:23:27;100651.94;;;2.68
76583;BMP280;65462;52.148;7.940;2022-12-07T08:25:52;100653.00;;;2.67
76583;BMP280;65462;52.148;7.940;2022-12-07T08:28:18;100648.81;;;2.66
76583;BMP280;65462;52.148;7.940;2022-12-07T08:30:43;100645.69;;;2.64
76583;BMP280;65462;52.148;7.940;2022-12-07T08:33:09;100649.06;;;2.65
76583;BMP280;65462;52.148;7.940;2022-12-07T08:35:35;100651.44;;;2.66
76583;BMP280;65462;52.148;7.940;2022-12-07T08:38:00;100648.56;;;2.68
76583;BMP280;65462;52.148;7.940;2022-12-07T08:40:27;100645.69;;;2.69
76583;BMP280;65462;52.148;7.940;2022-12-07T08:42:53;100645.69;;;2.69
76583;BMP280;65462;52.148;7.940;2022-12-07T08:45:19;100649.59;;;2.72
76583;BMP280;65462;52.148;7.940;2022-12-07T08:47:52;100659.00;;;2.73
76583;BMP280;65462;52.148;7.940;2022-12-07T08:50:18;100648.84;;;2.77
76583;BMP280;65462;52.148;7.940;2022-12-07T08:52:44;100656.91;;;2.85
76583;BMP280;65462;52.148;7.940;2022-12-07T08:55:12;100653.00;;;2.93
76583;BMP280;65462;52.148;7.940;2022-12-07T08:57:39;100652.72;;;2.94
76583;BMP280;65462;52.148;7.940;2022-12-07T09:00:05;100649.06;;;2.95
76583;BMP280;65462;52.148;7.940;2022-12-07T09:02:31;100655.84;;;3.01
76583;BMP280;65462;52.148;7.940;2022-12-07T09:04:56;100657.16;;;3.04
76583;BMP280;65462;52.148;7.940;2022-12-07T09:07:22;100658.22;;;3.08
76583;BMP280;65462;52.148;7.940;2022-12-07T09:09:47;100645.19;;;3.13
76583;BMP280;65462;52.148;7.940;2022-12-07T09:12:12;100655.34;;;3.14
76583;BMP280;65462;52.148;7.940;2022-12-07T09:14:37;100660.00;;;3.22
76583;BMP280;65462;52.148;7.940;2022-12-07T09:17:07;100659.75;;;3.29
76583;BMP280;65462;52.148;7.940;2022-12-07T09:19:33;100661.03;;;3.31
76583;BMP280;65462;52.148;7.940;2022-12-07T09:21:58;100654.78;;;3.38
76583;BMP280;65462;52.148;7.940;2022-12-07T09:24:23;100662.06;;;3.46
76583;BMP280;65462;52.148;7.940;2022-12-07T09:26:49;100650.53;;;3.47
76583;BMP280;65462;52.148;7.940;2022-12-07T09:29:14;100659.94;;;3.53
76583;BMP280;65462;52.148;7.940;2022-12-07T09:31:39;100648.19;;;3.55
76583;BMP280;65462;52.148;7.940;2022-12-07T09:34:05;100651.31;;;3.57
76583;BMP280;65462;52.148;7.940;2022-12-07T09:36:31;100655.22;;;3.60
76583;BMP280;65462;52.148;7.940;2022-12-07T09:38:56;100660.97;;;3.67
76583;BMP280;65462;52.148;7.940;2022-12-07T09:41:22;100654.94;;;3.71
76583;BMP280;65462;52.148;7.940;2022-12-07T09:43:49;100651.25;;;3.77
76583;BMP280;65462;52.148;7.940;2022-12-07T09:46:16;100656.72;;;3.81
76583;BMP280;65462;52.148;7.940;2022-12-07T09:48:44;100650.69;;;3.85
76583;BMP280;65462;52.148;7.940;2022-12-07T09:51:16;100662.19;;;3.89
76583;BMP280;65462;52.148;7.940;2022-12-07T09:53:42;100665.81;;;3.94
76583;BMP280;65462;52.148;7.940;2022-12-07T09:56:12;100653.50;;;3.99
76583;BMP280;65462;52.148;7.940;2022-12-07T09:58:38;100658.69;;;4.09
76583;BMP280;65462;52.148;7.940;2022-12-07T10:01:16;100653.38;;;4.14
76583;BMP280;65462;52.148;7.940;2022-12-07T10:06:27;100641.09;;;4.15
76583;BMP280;65462;52.148;7.940;2022-12-07T10:08:52;100641.34;;;4.18
76583;BMP280;65462;52.148;7.940;2022-12-07T10:11:18;100643.69;;;4.25
76583;BMP280;65462;52.148;7.940;2022-12-07T10:13:46;100637.66;;;4.24
76583;BMP280;65462;52.148;7.940;2022-12-07T10:16:39;100638.69;;;4.23
76583;BMP280;65462;52.148;7.940;2022-12-07T10:19:29;100641.31;;;4.23
76583;BMP280;65462;52.148;7.940;2022-12-07T10:22:15;100641.56;;;4.27
76583;BMP280;65462;52.148;7.940;2022-12-07T10:24:42;100639.72;;;4.27
76583;BMP280;65462;52.148;7.940;2022-12-07T10:27:26;100628.75;;;4.30
76583;BMP280;65462;52.148;7.940;2022-12-07T10:29:52;100627.63;;;4.36
76583;BMP280;65462;52.148;7.940;2022-12-07T10:34:43;100621.34;;;4.37
76583;BMP280;65462;52.148;7.940;2022-12-07T10:39:49;100616.06;;;4.47
76583;BMP280;65462;52.148;7.940;2022-12-07T10:42:32;100628.34;;;4.52
76583;BMP280;65462;52.148;7.940;2022-12-07T10:57:16;100619.81;;;4.65
76583;BMP280;65462;52.148;7.940;2022-12-07T11:00:04;100615.34;;;4.71
76583;BMP280;65462;52.148;7.940;2022-12-07T11:02:50;100614.78;;;4.74
76583;BMP280;65462;52.148;7.940;2022-12-07T11:05:27;100610.03;;;4.76
76583;BMP280;65462;52.148;7.940;2022-12-07T11:10:39;100612.13;;;4.79
76583;BMP280;65462;52.148;7.940;2022-12-07T11:13:23;100608.94;;;4.82
76583;BMP280;65462;52.148;7.940;2022-12-07T11:15:59;100611.75;;;4.90
76583;BMP280;65462;52.148;7.940;2022-12-07T11:18:44;100598.59;;;4.95
76583;BMP280;65462;52.148;7.940;2022-12-07T11:21:17;100601.72;;;4.97
76583;BMP280;65462;52.148;7.940;2022-12-07T11:23:50;100587.91;;;4.92
76583;BMP280;65462;52.148;7.940;2022-12-07T11:38:43;100575.78;;;5.01
76583;BMP280;65462;52.148;7.940;2022-12-07T11:41:09;100562.97;;;4.99
76583;BMP280;65462;52.148;7.940;2022-12-07T11:43:52;100567.56;;;5.07
76583;BMP280;65462;52.148;7.940;2022-12-07T11:46:46;100564.38;;;5.16
76583;BMP280;65462;52.148;7.940;2022-12-07T11:49:47;100554.56;;;5.26
76583;BMP280;65462;52.148;7.940;2022-12-07T11:52:43;100560.28;;;5.28
76583;BMP280;65462;52.148;7.940;2022-12-07T11:55:30;100545.50;;;5.37
76583;BMP280;65462;52.148;7.940;2022-12-07T11:58:04;100554.63;;;5.40
76583;BMP280;65462;52.148;7.940;2022-12-07T12:00:34;100547.53;;;5.40
76583;BMP280;65462;52.148;7.940;2022-12-07T12:03:13;100546.28;;;5.38
76583;BMP280;65462;52.148;7.940;2022-12-07T12:05:40;100548.44;;;5.36
76583;BMP280;65462;52.148;7.940;2022-12-07T12:13:20;100553.84;;;5.39
76583;BMP280;65462;52.148;7.940;2022-12-07T12:15:57;100546.00;;;5.39
76583;BMP280;65462;52.148;7.940;2022-12-07T12:18:45;100537.03;;;5.45
76583;BMP280;65462;52.148;7.940;2022-12-07T12:21:17;100531.22;;;5.48
76583;BMP280;65462;52.148;7.940;2022-12-07T12:23:45;100536.16;;;5.50
76583;BMP280;65462;52.148;7.940;2022-12-07T12:26:20;100531.16;;;5.53
76583;BMP280;65462;52.148;7.940;2022-12-07T12:33:46;100531.50;;;5.65
76583;BMP280;65462;52.148;7.940;2022-12-07T12:44:01;100535.91;;;5.70
76583;BMP280;65462;52.148;7.940;2022-12-07T12:51:42;100522.69;;;5.75
76583;BMP280;65462;52.148;7.940;2022-12-07T12:54:20;100513.56;;;5.72
76583;BMP280;65462;52.148;7.940;2022-12-07T13:02:54;100511.63;;;5.78
76583;BMP280;65462;52.148;7.940;2022-12-07T13:05:21;100517.09;;;5.82
76583;BMP280;65462;52.148;7.940;2022-12-07T13:12:57;100501.88;;;5.84
76583;BMP280;65462;52.148;7.940;2022-12-07T13:15:36;100512.25;;;5.89
76583;BMP280;65462;52.148;7.940;2022-12-07T13:20:57;100504.91;;;5.91
76583;BMP280;65462;52.148;7.940;2022-12-07T13:23:36;100502.56;;;5.89
76583;BMP280;65462;52.148;7.940;2022-12-07T13:28:50;100493.13;;;5.88
76583;BMP280;65462;52.148;7.940;2022-12-07T13:33:53;100482.94;;;5.87
76583;BMP280;65462;52.148;7.940;2022-12-07T13:36:30;100480.31;;;5.87
76583;BMP280;65462;52.148;7.940;2022-12-07T13:39:15;100486.63;;;5.86
76583;BMP280;65462;52.148;7.940;2022-12-07T13:41:42;100477.69;;;5.87
76583;BMP280;65462;52.148;7.940;2022-12-07T13:44:15;100484.78;;;5.86
76583;BMP280;65462;52.148;7.940;2022-12-07T13:46:53;100476.25;;;5.81
76583;BMP280;65462;52.148;7.940;2022-12-07T13:49:25;100474.59;;;5.85
76583;BMP280;65462;52.148;7.940;2022-12-07T13:51:51;100472.28;;;5.83
76583;BMP280;65462;52.148;7.940;2022-12-07T13:54:18;100475.56;;;5.89
76583;BMP280;65462;52.148;7.940;2022-12-07T13:56:48;100466.63;;;5.90
76583;BMP280;65462;52.148;7.940;2022-12-07T13:59:20;100473.16;;;5.92
76583;BMP280;65462;52.148;7.940;2022-12-07T14:01:47;100466.84;;;5.93
76583;BMP280;65462;52.148;7.940;2022-12-07T14:04:39;100460.63;;;5.89
76583;BMP280;65462;52.148;7.940;2022-12-07T14:07:22;100461.41;;;5.90
76583;BMP280;65462;52.148;7.940;2022-12-07T14:09:55;100462.56;;;5.84
76583;BMP280;65462;52.148;7.940;2022-12-07T14:12:21;100462.84;;;5.82
76583;BMP280;65462;52.148;7.940;2022-12-07T14:14:48;100465.75;;;5.81
76583;BMP280;65462;52.148;7.940;2022-12-07T14:17:22;100464.19;;;5.80
76583;BMP280;65462;52.148;7.940;2022-12-07T14:19:51;100466.91;;;5.75
76583;BMP280;65462;52.148;7.940;2022-12-07T14:22:24;100475.03;;;5.73
76583;BMP280;65462;52.148;7.940;2022-12-07T14:24:50;100469.59;;;5.69
76583;BMP280;65462;52.148;7.940;2022-12-07T14:27:24;100466.19;;;5.69
76583;BMP280;65462;52.148;7.940;2022-12-07T14:29:56;100458.34;;;5.69
76583;BMP280;65462;52.148;7.940;2022-12-07T14:32:27;100473.56;;;5.67
76583;BMP280;65462;52.148;7.940;2022-12-07T14:34:59;100459.13;;;5.69
76583;BMP280;65462;52.148;7.940;2022-12-07T14:37:26;100452.78;;;5.70
76583;BMP280;65462;52.148;7.940;2022-12-07T14:39:51;100454.94;;;5.68
76583;BMP280;65462;52.148;7.940;2022-12-07T14:42:17;100454.53;;;5.75
76583;BMP280;65462;52.148;7.940;2022-12-07T14:44:42;100453.50;;;5.76
76583;BMP280;65462;52.148;7.940;2022-12-07T14:47:11;100453.50;;;5.76
76583;BMP280;65462;52.148;7.940;2022-12-07T14:49:37;100454.84;;;5.74
76583;BMP280;65462;52.148;7.940;2022-12-07T14:52:03;100454.06;;;5.73
76583;BMP280;65462;52.148;7.940;2022-12-07T14:54:31;100449.69;;;5.68
76583;BMP280;65462;52.148;7.940;2022-12-07T14:56:58;100447.16;;;5.63
76583;BMP280;65462;52.148;7.940;2022-12-07T14:59:23;100443.84;;;5.58
76583;BMP280;65462;52.148;7.940;2022-12-07T15:01:49;100437.81;;;5.57
76583;BMP280;65462;52.148;7.940;2022-12-07T15:04:14;100442.06;;;5.53
76583;BMP280;65462;52.148;7.940;2022-12-07T15:06:40;100442.16;;;5.48
76583;BMP280;65462;52.148;7.940;2022-12-07T15:09:08;100443.00;;;5.44
76583;BMP280;65462;52.148;7.940;2022-12-07T15:11:34;100444.81;;;5.43
76583;BMP280;65462;52.148;7.940;2022-12-07T15:13:59;100437.06;;;5.38
76583;BMP280;65462;52.148;7.940;2022-12-07T15:16:35;100435.81;;;5.36
76583;BMP280;65462;52.148;7.940;2022-12-07T15:19:00;100424.81;;;5.34
76583;BMP280;65462;52.148;7.940;2022-12-07T15:21:26;100431.97;;;5.28
76583;BMP280;65462;52.148;7.940;2022-12-07T15:23:51;100430.41;;;5.27
76583;BMP280;65462;52.148;7.940;2022-12-07T15:26:17;100434.97;;;5.22
76583;BMP280;65462;52.148;7.940;2022-12-07T15:28:42;100432.41;;;5.17
76583;BMP280;65462;52.148;7.940;2022-12-07T15:31:15;100435.28;;;5.15
76583;BMP280;65462;52.148;7.940;2022-12-07T15:33:41;100432.19;;;5.13
76583;BMP280;65462;52.148;7.940;2022-12-07T15:36:06;100423.41;;;5.04
76583;BMP280;65462;52.148;7.940;2022-12-07T15:38:32;100433.38;;;5.02
76583;BMP280;65462;52.148;7.940;2022-12-07T15:40:57;100431.31;;;4.99
76583;BMP280;65462;52.148;7.940;2022-12-07T15:43:23;100429.75;;;4.98
76583;BMP280;65462;52.148;7.940;2022-12-07T15:46:07;100433.50;;;4.92
76583;BMP280;65462;52.148;7.940;2022-12-07T15:48:32;100428.34;;;4.87
76583;BMP280;65462;52.148;7.940;2022-12-07T15:51:07;100427.34;;;4.83
76583;BMP280;65462;52.148;7.940;2022-12-07T15:53:43;100432.59;;;4.83
76583;BMP280;65462;52.148;7.940;2022-12-07T15:56:14;100429.97;;;4.83